If you wish to contribute or participate in the discussions about articles you are invited to join SKYbrary as a registered user

 Actions

Woomera Airfield

From SKYbrary Wiki

YPWR
Airport
ICAO: YPWR – IATA: UMR
Summary
Name Woomera Airfield
Region Asia and Pacific
Territory Australia AU.gif
Location Woomera, South Australia
Serving Woomera
Elevation 167.03 m
548 ft
548 ft167.03 m
Type small airport
Coordinates 31° 8' 39.00" S, 136° 49' 1.00" E
Runways
Designator Length Width Surface ROPS
12/30 1614 m5,295.276 ft
30 m98.425 ft
GVL /
18/36 2372 m7,782.152 ft
45 m147.638 ft
ASP /


METAR
Observation YPWR 182130Z AUTO 04009KT 9999 // NCD 18/05 Q1021 RF00.0/000.0
Station Woomera Aerodrome
Date/Time 18 April 2019 21:30:00
Wind direction 40°
Wind speed 09 kts
Lowest cloud amount no clouds detected
Temperature 18°C
Dew point 5°C
Humidity 42%
QNH 1021 hPa
Weather condition n/a